Norwood Memorial Airport Norwood US
ICAO: KOWD
IATA: OWD
Category: Medium
Scheduled Services: No

Elevation: 49 ft
TransAlt. 18000 ft.

Airport Communications:
BOSTON APP:124.1
ATIS:119.95
CLNC DEL:121.8
CTAF:126
BOSTON DEP:124.1
GND:121.8
TWR:126

KOWD Zoom In..

Runways:

(A) RW 10 length 3995 ft width 75 ft
LOC 108.30 / hdg 104

(B) RW 17 length 4008 ft width 100 ft
LOC 108.30 / hdg 170

(C) RW 28 length 3995 ft width 75 ft
LOC 108.30 / hdg 284

(D) RW 35 length 4008 ft width 100 ft
LOC 108.30 / hdg 350

Location; KOWD
Day. 23 / Time. 21.53 Zulu
* Altimeter: 29.48
* Temperature: 14° c. 57.2°f.
* Wind from: 190° Speed 06 kn.
Dewpoint: 13° c.
Visibility: 4 Statute Miles.
Clouds: Overcast 1000 ft.
Conditions: Light Rain.Conditions: Mist.

KOWD 232153Z 19006KT 4SM -RA BR OVC010 14/13 A2948 RMK AO2 RAB19 CIG 006V012 SLP983 P0000 T01390128


Wind From 190°
Speed 06 kn.

YouTube Music Video
 
jpsmedia.com for Web Design  worldairports.se 2018   terms of use